Time;durP1;ratioP1;P1;durP2;ratioP2;P2;SDS_P1;SDS_P2;PMS_P1;PMS_P2;Temp;Humidity;BMP_temperature;BMP_pressure;BME280_temperature;BME280_humidity;BME280_pressure;Samples;Min_cycle;Max_cycle;Signal;HPM_P1;HPM_P2
2022/05/25 00:01:04;;;;;;;8.90;1.80;;;25.50;99.90;;;;;;5014628;28;20133;-51
2022/05/25 00:03:32;;;;;;;8.48;1.35;;;25.50;99.90;;;;;;5014224;28;20109;-51
2022/05/25 00:06:00;;;;;;;4.85;1.60;;;25.50;99.90;;;;;;5014135;28;20057;-53
2022/05/25 00:08:26;;;;;;;;;;;25.40;99.90;;;;;;5014523;28;20464;-53
2022/05/25 00:10:52;;;;;;;8.75;1.63;;;25.40;99.90;;;;;;5013988;28;19912;-55
2022/05/25 00:13:18;;;;;;;4.60;1.85;;;25.30;99.90;;;;;;5013961;28;20021;-52
2022/05/25 00:15:45;;;;;;;12.38;1.60;;;25.30;99.90;;;;;;5013864;28;20073;-52
2022/05/25 00:18:11;;;;;;;3.80;1.30;;;25.40;99.90;;;;;;5013823;28;20099;-53
2022/05/25 00:20:37;;;;;;;6.25;1.60;;;25.30;99.90;;;;;;5013836;28;20033;-52
2022/05/25 00:23:04;;;;;;;5.18;1.70;;;25.30;99.90;;;;;;5013902;28;20033;-52
2022/05/25 00:25:35;;;;;;;3.55;1.20;;;25.30;99.90;;;;;;5013789;28;20022;-52
2022/05/25 00:28:03;;;;;;;3.65;1.25;;;25.30;99.90;;;;;;5013700;28;20043;-53
2022/05/25 00:30:30;;;;;;;5.38;1.63;;;25.30;99.90;;;;;;5013666;28;20437;-53
2022/05/25 00:32:57;;;;;;;4.80;1.48;;;25.20;99.90;;;;;;5013732;28;20030;-53
2022/05/25 00:35:25;;;;;;;5.88;1.60;;;25.20;99.90;;;;;;5013392;28;20107;-53
2022/05/25 00:37:51;;;;;;;5.55;1.10;;;25.20;99.90;;;;;;5013482;28;20026;-53
2022/05/25 00:40:26;;;;;;;6.35;1.35;;;25.20;99.90;;;;;;5013325;28;20484;-53
2022/05/25 00:42:52;;;;;;;7.88;1.88;;;25.20;99.90;;;;;;5013090;28;20037;-54
2022/05/25 00:45:18;;;;;;;5.22;1.48;;;25.20;99.90;;;;;;5013345;28;20025;-54
2022/05/25 00:47:49;;;;;;;2.38;1.50;;;25.20;99.90;;;;;;5013425;28;20033;-53
2022/05/25 00:50:17;;;;;;;8.63;1.52;;;25.20;99.90;;;;;;5013203;28;20033;-52
2022/05/25 00:52:45;;;;;;;6.18;1.25;;;25.20;99.90;;;;;;5013248;28;20450;-52
2022/05/25 00:55:17;;;;;;;5.88;1.42;;;25.10;99.90;;;;;;5012981;28;20021;-51
2022/05/25 00:57:46;;;;;;;4.53;1.33;;;25.10;99.90;;;;;;5012961;28;20037;-52
2022/05/25 01:00:17;;;;;;;4.65;1.65;;;25.10;99.90;;;;;;5013544;28;20174;-52
2022/05/25 01:02:58;;;;;;;8.35;1.55;;;25.10;99.90;;;;;;5013168;28;20033;-52
2022/05/25 01:05:56;;;;;;;3.80;1.08;;;25.10;99.90;;;;;;5013062;28;20117;-53
2022/05/25 01:08:59;;;;;;;8.23;1.73;;;25.10;99.90;;;;;;5012612;28;20026;-52
2022/05/25 01:11:43;;;;;;;6.55;1.38;;;25.10;99.90;;;;;;5012984;28;20033;-52
2022/05/25 01:14:42;;;;;;;6.38;1.55;;;25.00;99.90;;;;;;5011556;28;20481;-52
2022/05/25 01:17:43;;;;;;;6.55;1.15;;;25.10;99.90;;;;;;5012826;28;20060;-52
2022/05/25 01:20:09;;;;;;;3.10;0.90;;;25.10;99.90;;;;;;4972095;28;20125;-52
2022/05/25 01:23:13;;;;;;;4.20;1.30;;;25.10;99.90;;;;;;5012852;28;20102;-53
2022/05/25 01:25:55;;;;;;;4.90;1.23;;;25.10;99.90;;;;;;4932856;29;20023;-53
2022/05/25 01:28:45;;;;;;;6.68;1.33;;;25.10;99.90;;;;;;5004748;28;20061;-53
2022/05/25 01:31:20;;;;;;;5.28;1.10;;;25.10;99.90;;;;;;5012528;28;20029;-52
2022/05/25 01:33:58;;;;;;;3.95;1.20;;;25.00;99.90;;;;;;5012343;28;20049;-53
2022/05/25 01:36:27;;;;;;;8.30;1.08;;;25.00;99.90;;;;;;5012420;28;20374;-53
2022/05/25 01:39:01;;;;;;;3.72;0.90;;;25.00;99.90;;;;;;5012198;28;20022;-52
2022/05/25 01:41:42;;;;;;;7.80;1.10;;;25.00;99.90;;;;;;5012422;28;20018;-54
2022/05/25 01:44:22;;;;;;;6.43;0.90;;;24.90;99.90;;;;;;5012532;28;20029;-53
2022/05/25 01:47:10;;;;;;;7.90;1.15;;;25.00;99.90;;;;;;5012302;28;20398;-53
2022/05/25 01:49:48;;;;;;;6.15;1.45;;;24.90;99.90;;;;;;5012371;28;20033;-53
2022/05/25 01:52:19;;;;;;;2.70;0.80;;;24.90;99.90;;;;;;5012056;28;20083;-52
2022/05/25 01:54:54;;;;;;;5.10;1.23;;;24.80;99.90;;;;;;5011400;28;20030;-52
2022/05/25 01:57:24;;;;;;;3.63;1.13;;;24.80;99.90;;;;;;5011964;28;20029;-53
2022/05/25 01:59:50;;;;;;;4.18;0.95;;;24.90;99.90;;;;;;5011016;28;20506;-53
2022/05/25 02:05:06;;;;;;;3.13;1.13;;;24.90;99.90;;;;;;5012330;28;20041;-52
2022/05/25 02:07:38;;;;;;;2.90;0.98;;;24.90;99.90;;;;;;5011805;28;20398;-53
2022/05/25 02:10:06;;;;;;;4.38;1.30;;;24.90;99.90;;;;;;5011978;28;20033;-53
2022/05/25 02:12:56;;;;;;;3.30;1.30;;;24.80;99.90;;;;;;5011789;28;20026;-53
2022/05/25 02:15:41;;;;;;;4.45;1.35;;;24.80;99.90;;;;;;5011716;28;20033;-53
2022/05/25 02:18:27;;;;;;;2.65;1.20;;;24.70;99.90;;;;;;5011947;28;20029;-53
2022/05/25 02:21:27;;;;;;;5.47;1.10;;;24.70;99.90;;;;;;5011876;28;20080;-53
2022/05/25 02:24:10;;;;;;;4.32;0.98;;;24.70;99.90;;;;;;5011647;28;20029;-53
2022/05/25 02:26:46;;;;;;;6.00;1.13;;;24.70;99.90;;;;;;5011540;28;20036;-53
2022/05/25 02:29:28;;;;;;;4.07;1.27;;;24.70;99.90;;;;;;5011524;28;20062;-53
2022/05/25 02:32:00;;;;;;;3.63;1.20;;;24.80;99.90;;;;;;5011532;28;20371;-53
2022/05/25 02:34:27;;;;;;;2.53;1.20;;;24.70;99.90;;;;;;5011571;28;20089;-52
2022/05/25 02:36:55;;;;;;;2.25;1.00;;;24.70;99.90;;;;;;5010334;28;20075;-52
2022/05/25 02:39:22;;;;;;;4.70;1.17;;;24.70;99.90;;;;;;5011417;28;20030;-52
2022/05/25 02:41:52;;;;;;;6.53;1.30;;;24.70;99.90;;;;;;5011401;28;20025;-53
2022/05/25 02:44:18;;;;;;;3.28;1.15;;;24.70;99.90;;;;;;5011404;28;20096;-52
2022/05/25 02:46:44;;;;;;;6.57;1.15;;;24.70;99.90;;;;;;5011226;28;20030;-52
2022/05/25 02:49:10;;;;;;;5.50;1.38;;;24.70;99.90;;;;;;5011568;28;20417;-52
2022/05/25 02:51:36;;;;;;;6.65;1.15;;;24.70;99.90;;;;;;5011410;28;20026;-52
2022/05/25 02:54:02;;;;;;;3.15;0.98;;;24.60;99.90;;;;;;5011319;28;20058;-52
2022/05/25 02:56:29;;;;;;;4.20;1.27;;;24.70;99.90;;;;;;5011373;28;20026;-52
2022/05/25 02:58:55;;;;;;;4.85;1.15;;;24.60;99.90;;;;;;5011348;28;20018;-52
2022/05/25 03:01:21;;;;;;;2.33;0.88;;;24.60;99.90;;;;;;5011780;28;20099;-52
2022/05/25 03:03:46;;;;;;;2.65;0.80;;;24.60;99.90;;;;;;5011290;28;20034;-52
2022/05/25 03:06:12;;;;;;;2.13;0.80;;;24.60;99.90;;;;;;5012864;28;20033;-52
2022/05/25 03:08:39;;;;;;;3.05;0.80;;;24.60;99.90;;;;;;5015379;28;20061;-52
2022/05/25 03:11:05;;;;;;;3.17;1.10;;;24.50;99.90;;;;;;5015254;28;20030;-52
2022/05/25 03:13:31;;;;;;;2.42;0.90;;;24.50;99.90;;;;;;5015067;28;20449;-52
2022/05/25 03:15:59;;;;;;;4.07;1.02;;;24.50;99.90;;;;;;5014975;28;20040;-52
2022/05/25 03:18:24;;;;;;;2.58;1.08;;;24.50;99.90;;;;;;5015004;28;20030;-52
2022/05/25 03:20:50;;;;;;;4.32;1.02;;;24.50;99.90;;;;;;5014882;28;20041;-53
2022/05/25 03:23:17;;;;;;;2.90;1.30;;;24.50;99.90;;;;;;5014855;28;20029;-53
2022/05/25 03:25:44;;;;;;;3.75;0.80;;;24.50;99.90;;;;;;5015060;28;20405;-52
2022/05/25 03:28:10;;;;;;;1.60;1.10;;;24.40;99.90;;;;;;5014964;28;20038;-51
2022/05/25 03:30:35;;;;;;;6.30;0.90;;;24.40;99.90;;;;;;5014724;28;20032;-52
2022/05/25 03:33:01;;;;;;;3.42;0.90;;;24.40;99.90;;;;;;5014714;28;20080;-52
2022/05/25 03:35:27;;;;;;;9.40;1.08;;;24.40;99.90;;;;;;5014604;28;20427;-53
2022/05/25 03:37:53;;;;;;;4.40;1.00;;;24.40;99.90;;;;;;5014640;28;20030;-52
2022/05/25 03:40:19;;;;;;;2.72;0.98;;;24.40;99.90;;;;;;5014459;28;20033;-52
2022/05/25 03:42:46;;;;;;;2.75;0.90;;;24.40;99.90;;;;;;5014568;28;20363;-52
2022/05/25 03:45:13;;;;;;;3.53;0.90;;;24.50;99.90;;;;;;5014665;28;20026;-52
2022/05/25 03:47:39;;;;;;;3.50;1.00;;;24.50;99.90;;;;;;5014294;28;20054;-53
2022/05/25 03:50:06;;;;;;;4.82;1.15;;;24.50;99.90;;;;;;5014474;28;20021;-52
2022/05/25 03:52:32;;;;;;;3.78;1.02;;;24.50;99.90;;;;;;5014151;28;20026;-51
2022/05/25 03:54:57;;;;;;;2.70;1.08;;;24.50;99.90;;;;;;5014059;28;20184;-52
2022/05/25 03:57:23;;;;;;;4.60;1.05;;;24.50;99.90;;;;;;5014308;28;20018;-52
2022/05/25 03:59:50;;;;;;;2.58;0.85;;;24.50;99.90;;;;;;5014635;28;20065;-51
2022/05/25 04:02:16;;;;;;;3.97;0.80;;;24.50;99.90;;;;;;5014747;28;20161;-52
2022/05/25 04:04:41;;;;;;;2.03;0.88;;;24.50;99.90;;;;;;5014320;28;20101;-52
2022/05/25 04:07:07;;;;;;;2.30;0.98;;;24.40;99.90;;;;;;5013927;28;20030;-52
2022/05/25 04:09:33;;;;;;;3.92;0.85;;;24.50;99.90;;;;;;5014092;28;20033;-52
2022/05/25 04:11:59;;;;;;;1.77;0.93;;;24.50;99.90;;;;;;5014038;28;20022;-52
2022/05/25 04:14:24;;;;;;;5.28;1.00;;;24.50;99.90;;;;;;5013983;28;20025;-52
2022/05/25 04:16:50;;;;;;;4.53;1.02;;;24.40;99.90;;;;;;5013897;28;20029;-52
2022/05/25 04:19:16;;;;;;;3.45;1.52;;;24.40;99.90;;;;;;5013258;28;20101;-52
2022/05/25 04:21:42;;;;;;;4.53;1.50;;;24.40;99.90;;;;;;5013942;28;20121;-51
2022/05/25 04:24:09;;;;;;;5.97;1.10;;;24.40;99.90;;;;;;5012512;28;20030;-52
2022/05/25 04:26:35;;;;;;;3.05;1.10;;;24.40;99.90;;;;;;5012276;28;20014;-51
2022/05/25 04:29:01;;;;;;;6.22;1.10;;;24.30;99.90;;;;;;5013616;28;20544;-52
2022/05/25 04:31:27;;;;;;;2.90;1.02;;;24.30;99.90;;;;;;5013795;28;20036;-52
2022/05/25 04:33:54;;;;;;;3.05;0.80;;;24.30;99.90;;;;;;5013582;28;20029;-52
2022/05/25 04:36:20;;;;;;;3.10;0.93;;;24.30;99.90;;;;;;5013586;28;20054;-52
2022/05/25 04:38:46;;;;;;;6.32;1.20;;;24.30;99.90;;;;;;5013578;28;20088;-52
2022/05/25 04:41:12;;;;;;;1.17;0.60;;;24.30;99.90;;;;;;5013407;28;20026;-52
2022/05/25 04:43:38;;;;;;;2.75;0.95;;;24.20;99.90;;;;;;5012097;28;20030;-52
2022/05/25 04:46:11;;;;;;;2.47;1.20;;;24.20;99.90;;;;;;5013613;28;20022;-52
2022/05/25 04:48:38;;;;;;;12.57;1.90;;;24.20;99.90;;;;;;5013128;28;20033;-52
2022/05/25 04:51:04;;;;;;;7.53;1.25;;;24.20;99.90;;;;;;5013189;28;20029;-51
2022/05/25 04:53:31;;;;;;;7.15;1.40;;;24.20;99.90;;;;;;5013225;28;20030;-52
2022/05/25 04:58:44;;;;;;;4.10;1.52;;;24.10;99.90;;;;;;5013283;28;20127;-52
2022/05/25 05:01:12;;;;;;;3.05;1.13;;;24.00;99.90;;;;;;5011573;28;20065;-52
2022/05/25 05:03:39;;;;;;;4.28;1.48;;;24.00;99.90;;;;;;5012885;28;20022;-52
2022/05/25 05:06:06;;;;;;;4.85;1.58;;;24.00;99.90;;;;;;5013059;28;20030;-52
2022/05/25 05:08:33;;;;;;;6.45;2.13;;;24.00;99.90;;;;;;5012737;28;20034;-52
2022/05/25 05:11:07;;;;;;;4.55;1.15;;;24.00;99.90;;;;;;5012774;28;20069;-53
2022/05/25 05:13:32;;;;;;;3.75;1.00;;;24.10;99.90;;;;;;5012841;28;20390;-52
2022/05/25 05:16:07;;;;;;;2.70;1.40;;;24.10;99.90;;;;;;5011435;28;20029;-51
2022/05/25 05:18:33;;;;;;;3.53;1.20;;;24.10;99.90;;;;;;5012596;28;20034;-51
2022/05/25 05:20:59;;;;;;;9.07;1.15;;;24.10;99.90;;;;;;5012633;28;20021;-52
2022/05/25 05:23:25;;;;;;;5.95;1.63;;;24.00;99.90;;;;;;5012526;28;20022;-52
2022/05/25 05:25:51;;;;;;;2.78;1.40;;;24.10;99.90;;;;;;5012454;28;20026;-53
2022/05/25 05:28:23;;;;;;;6.47;1.08;;;24.00;99.90;;;;;;5012495;28;20040;-53
2022/05/25 05:30:54;;;;;;;6.43;1.77;;;24.00;99.90;;;;;;5011624;28;20036;-53
2022/05/25 05:33:22;;;;;;;7.13;1.33;;;24.10;99.90;;;;;;5012344;28;20034;-53
2022/05/25 05:35:54;;;;;;;5.72;1.40;;;24.00;99.90;;;;;;5012532;28;20493;-53
2022/05/25 05:38:21;;;;;;;3.65;1.60;;;24.00;99.90;;;;;;5012591;28;20038;-52
2022/05/25 05:40:47;;;;;;;3.92;1.30;;;24.00;99.90;;;;;;5012584;28;20445;-52
2022/05/25 05:43:13;;;;;;;3.38;1.17;;;24.10;99.90;;;;;;5012077;28;20026;-53
2022/05/25 05:45:42;;;;;;;9.38;1.58;;;24.10;99.90;;;;;;5012213;28;20037;-53
2022/05/25 05:48:20;;;;;;;2.60;1.52;;;24.10;99.90;;;;;;5012098;28;20061;-53
2022/05/25 05:50:48;;;;;;;5.22;2.20;;;24.10;99.90;;;;;;5012095;28;20026;-53
2022/05/25 05:53:15;;;;;;;5.53;1.70;;;24.10;99.90;;;;;;5011951;28;20022;-53
2022/05/25 05:55:43;;;;;;;6.88;1.67;;;24.10;99.90;;;;;;5011979;28;20486;-53
2022/05/25 05:58:10;;;;;;;6.97;1.73;;;24.20;99.90;;;;;;5011973;28;20036;-53
2022/05/25 06:00:36;;;;;;;6.37;1.90;;;24.20;99.90;;;;;;5011845;28;20068;-53
2022/05/25 06:03:02;;;;;;;4.68;1.73;;;24.20;99.90;;;;;;5012002;28;20267;-53
2022/05/25 06:05:28;;;;;;;13.20;1.27;;;24.20;99.90;;;;;;5011813;28;20045;-53
2022/05/25 06:07:54;;;;;;;3.38;1.40;;;24.20;99.90;;;;;;5011736;28;20042;-52
2022/05/25 06:10:20;;;;;;;4.90;1.52;;;24.20;99.90;;;;;;5012089;28;20406;-52
2022/05/25 06:12:47;;;;;;;4.93;1.38;;;24.30;99.90;;;;;;5011756;28;20072;-53
2022/05/25 06:20:53;;;;;;;5.55;1.42;;;24.40;99.90;;;;;;5011743;28;20139;-53
2022/05/25 06:23:19;;;;;;;1.85;1.23;;;24.50;99.90;;;;;;5011797;28;20030;-54
2022/05/25 06:25:45;;;;;;;4.35;1.50;;;24.50;99.90;;;;;;5011496;28;20394;-53
2022/05/25 06:28:11;;;;;;;5.60;1.60;;;24.50;99.90;;;;;;5011528;28;20367;-53
2022/05/25 06:30:36;;;;;;;4.70;1.52;;;24.60;99.90;;;;;;5011709;28;20029;-53
2022/05/25 06:33:05;;;;;;;4.70;1.80;;;24.60;99.90;;;;;;5011466;28;20030;-53
2022/05/25 06:35:31;;;;;;;5.72;1.65;;;24.70;99.90;;;;;;5011540;28;20026;-53
2022/05/25 06:37:56;;;;;;;10.18;5.55;;;24.70;99.90;;;;;;5011336;28;20037;-52
2022/05/25 06:40:22;;;;;;;7.35;3.28;;;24.70;99.90;;;;;;5011273;28;20093;-53
2022/05/25 06:42:48;;;;;;;5.88;1.80;;;24.70;99.90;;;;;;5011314;28;20390;-53
2022/05/25 06:45:14;;;;;;;4.93;1.70;;;24.80;99.90;;;;;;5009960;28;20018;-53
2022/05/25 06:47:40;;;;;;;4.97;2.22;;;24.80;99.90;;;;;;5011330;28;20447;-54
2022/05/25 06:50:06;;;;;;;8.80;2.55;;;24.80;99.90;;;;;;5011220;28;20033;-54
2022/05/25 06:52:32;;;;;;;6.20;1.95;;;24.90;99.90;;;;;;5009914;28;20431;-54
2022/05/25 06:54:58;;;;;;;6.55;1.98;;;24.90;99.90;;;;;;5011148;28;20470;-53
2022/05/25 06:57:25;;;;;;;6.95;2.22;;;24.90;99.90;;;;;;5011464;28;20029;-53
2022/05/25 06:59:51;;;;;;;7.97;2.20;;;24.90;99.90;;;;;;5011159;28;20030;-53
2022/05/25 07:02:17;;;;;;;6.50;2.42;;;25.00;99.90;;;;;;5010954;28;20785;-53
2022/05/25 07:04:43;;;;;;;5.00;2.38;;;25.00;99.90;;;;;;5010984;28;20034;-53
2022/05/25 07:07:08;;;;;;;6.72;1.85;;;25.00;99.90;;;;;;5010965;28;20026;-53
2022/05/25 07:09:37;;;;;;;5.93;1.95;;;25.00;99.90;;;;;;5011024;28;20478;-54
2022/05/25 07:12:03;;;;;;;5.57;1.90;;;25.10;99.90;;;;;;5011092;28;20022;-53
2022/05/25 07:14:29;;;;;;;4.65;1.70;;;25.10;99.90;;;;;;5009982;28;20466;-53
2022/05/25 07:16:55;;;;;;;6.63;2.45;;;25.10;99.90;;;;;;5011392;28;20041;-53
2022/05/25 07:19:21;;;;;;;4.63;1.77;;;25.10;99.90;;;;;;5011202;28;20049;-53
2022/05/25 07:21:48;;;;;;;4.25;2.40;;;25.10;99.90;;;;;;5010924;28;20052;-53
2022/05/25 07:24:14;;;;;;;6.03;2.10;;;25.10;99.90;;;;;;5011071;28;20034;-53
2022/05/25 07:26:40;;;;;;;3.50;1.67;;;25.20;99.90;;;;;;5010861;28;20030;-54
2022/05/25 07:29:06;;;;;;;4.65;2.08;;;25.20;99.90;;;;;;5010983;28;20034;-53
2022/05/25 07:31:37;;;;;;;6.25;2.10;;;25.20;99.90;;;;;;5010858;28;20026;-53
2022/05/25 07:34:06;;;;;;;5.65;2.00;;;25.20;99.90;;;;;;5010805;28;20041;-53
2022/05/25 07:36:33;;;;;;;7.25;2.65;;;25.20;99.90;;;;;;5010786;28;20025;-53
2022/05/25 07:39:03;;;;;;;6.38;2.05;;;25.30;99.90;;;;;;5009572;28;20462;-53
2022/05/25 07:41:30;;;;;;;5.10;2.00;;;25.30;99.90;;;;;;5010782;28;20037;-54
2022/05/25 07:43:57;;;;;;;12.50;2.08;;;25.30;99.90;;;;;;5010932;28;20101;-53
2022/05/25 07:46:29;;;;;;;4.80;1.83;;;25.30;99.90;;;;;;5010860;28;20061;-53
2022/05/25 07:48:56;;;;;;;8.23;1.65;;;25.40;99.90;;;;;;5009766;28;20060;-53
2022/05/25 07:51:23;;;;;;;3.20;1.55;;;25.40;99.90;;;;;;5010600;28;20022;-54
2022/05/25 07:53:56;;;;;;;4.20;1.90;;;25.40;99.90;;;;;;5012927;28;20033;-54
2022/05/25 07:56:30;;;;;;;6.95;1.50;;;25.50;99.90;;;;;;5012893;28;20497;-54
2022/05/25 07:59:00;;;;;;;4.32;1.55;;;25.50;99.90;;;;;;5014487;28;20034;-54
2022/05/25 08:07:01;;;;;;;11.00;2.92;;;25.60;99.90;;;;;;5013941;28;20041;-54
2022/05/25 08:09:29;;;;;;;2.75;1.65;;;25.60;99.90;;;;;;5014172;28;20036;-54
2022/05/25 08:11:56;;;;;;;3.20;1.60;;;25.70;99.90;;;;;;5014150;28;20065;-54
2022/05/25 08:14:25;;;;;;;5.30;1.75;;;25.70;99.90;;;;;;5013942;28;20127;-54
2022/05/25 08:16:52;;;;;;;6.78;2.28;;;25.70;99.90;;;;;;5013816;28;20026;-53
2022/05/25 08:19:17;;;;;;;4.88;2.40;;;25.70;99.90;;;;;;5012555;28;20116;-53
2022/05/25 08:21:43;;;;;;;6.78;3.67;;;25.80;99.90;;;;;;5013716;28;20145;-54
2022/05/25 08:24:09;;;;;;;6.75;2.55;;;25.80;99.90;;;;;;5013718;28;20398;-54
2022/05/25 08:26:35;;;;;;;11.00;3.22;;;25.80;99.90;;;;;;5012424;28;20026;-54
2022/05/25 08:29:01;;;;;;;8.70;2.70;;;25.80;99.90;;;;;;5013585;28;20042;-54
2022/05/25 08:31:27;;;;;;;7.93;2.50;;;25.80;99.90;;;;;;5013767;28;20613;-53
2022/05/25 08:33:54;;;;;;;12.32;3.53;;;25.90;99.90;;;;;;5013459;28;20048;-54
2022/05/25 08:36:19;;;;;;;6.65;2.72;;;25.90;99.90;;;;;;5013443;28;20034;-53
2022/05/25 08:38:45;;;;;;;9.55;4.35;;;25.90;99.90;;;;;;5013404;28;20028;-53
2022/05/25 08:41:11;;;;;;;6.60;2.92;;;25.90;99.90;;;;;;5013313;28;20393;-54
2022/05/25 08:43:45;;;;;;;9.85;3.47;;;25.90;99.90;;;;;;5013202;28;20018;-54
2022/05/25 08:46:16;;;;;;;11.85;3.28;;;25.90;99.90;;;;;;5013443;28;20079;-54
2022/05/25 08:48:43;;;;;;;9.73;2.88;;;26.00;99.90;;;;;;5013090;28;20042;-54
2022/05/25 08:51:12;;;;;;;13.02;3.83;;;26.00;99.90;;;;;;5012990;28;20030;-54
2022/05/25 08:53:40;;;;;;;13.48;3.97;;;26.00;99.90;;;;;;5013261;28;20379;-54
2022/05/25 08:56:55;;;;;;;12.40;3.63;;;26.10;99.90;;;;;;5013168;28;20430;-54
2022/05/25 08:59:41;;;;;;;9.23;3.78;;;26.10;99.90;;;;;;4933250;29;20039;-54
2022/05/25 09:02:14;;;;;;;10.05;3.78;;;26.20;99.90;;;;;;4933201;29;20040;-53
2022/05/25 09:05:08;;;;;;;10.57;3.53;;;26.20;99.90;;;;;;4985053;28;20113;-54
2022/05/25 09:07:52;;;;;;;14.25;4.03;;;26.30;99.90;;;;;;4975851;28;20058;-54
2022/05/25 09:10:19;;;;;;;13.55;4.53;;;26.30;99.90;;;;;;5012912;28;20100;-54
2022/05/25 09:12:58;;;;;;;9.70;4.70;;;26.30;99.90;;;;;;5012962;28;20105;-54
2022/05/25 09:18:33;;;;;;;10.32;4.10;;;26.30;99.90;;;;;;5012880;28;20199;-55
2022/05/25 09:21:03;;;;;;;12.25;4.97;;;26.40;99.90;;;;;;5012794;28;20022;-54
2022/05/25 09:23:29;;;;;;;16.13;4.60;;;26.40;99.90;;;;;;5012930;28;20026;-53
2022/05/25 09:25:56;;;;;;;14.60;4.68;;;26.40;99.90;;;;;;5012556;28;20033;-54
2022/05/25 09:28:28;;;;;;;13.32;3.85;;;26.40;99.90;;;;;;5012501;28;20033;-54
2022/05/25 09:30:57;;;;;;;13.20;4.70;;;26.40;99.90;;;;;;5012520;28;20014;-53
2022/05/25 09:33:41;;;;;;;13.45;5.05;;;26.40;99.90;;;;;;5012395;28;20032;-54
2022/05/25 09:36:20;;;;;;;16.23;5.85;;;26.40;99.90;;;;;;5011010;28;20569;-54
2022/05/25 09:38:53;;;;;;;14.85;5.63;;;26.40;99.90;;;;;;5012432;28;20425;-53
2022/05/25 09:41:23;;;;;;;14.63;5.25;;;26.50;99.90;;;;;;5012081;28;20061;-54
2022/05/25 09:43:54;;;;;;;13.30;5.15;;;26.50;99.90;;;;;;5012001;28;20046;-53
2022/05/25 09:46:35;;;;;;;13.55;4.43;;;26.50;99.90;;;;;;5012111;28;20056;-54
2022/05/25 09:49:08;;;;;;;16.33;4.95;;;26.50;99.90;;;;;;5010920;28;20030;-54
2022/05/25 09:51:49;;;;;;;14.55;4.95;;;26.50;99.90;;;;;;5011874;28;20022;-54
2022/05/25 09:54:27;;;;;;;24.35;5.32;;;26.50;99.90;;;;;;5012091;28;20393;-54
2022/05/25 09:56:55;;;;;;;11.43;4.45;;;26.50;99.90;;;;;;5011800;28;20454;-54
2022/05/25 09:59:30;;;;;;;17.15;5.82;;;26.60;99.90;;;;;;5011901;28;20113;-55
2022/05/25 10:01:56;;;;;;;11.65;5.65;;;26.60;99.90;;;;;;5011886;28;20443;-55
2022/05/25 10:04:51;;;;;;;13.15;4.70;;;26.60;99.90;;;;;;5011766;28;20041;-54
2022/05/25 10:07:37;;;;;;;10.00;4.32;;;26.60;99.90;;;;;;5011712;28;20076;-54
2022/05/25 10:10:08;;;;;;;16.33;5.28;;;26.70;99.90;;;;;;5012126;28;20037;-54
2022/05/25 10:12:39;;;;;;;17.63;4.53;;;26.70;99.90;;;;;;5011826;28;20029;-55
2022/05/25 10:15:12;;;;;;;12.60;5.32;;;26.70;99.90;;;;;;5011495;28;20030;-55
2022/05/25 10:17:40;;;;;;;18.67;5.68;;;26.70;99.90;;;;;;5011632;28;20128;-54
2022/05/25 10:20:24;;;;;;;16.35;5.18;;;26.70;99.90;;;;;;5011619;28;20101;-55
2022/05/25 10:22:59;;;;;;;22.88;7.38;;;26.70;99.90;;;;;;5011484;28;20026;-54
2022/05/25 10:25:45;;;;;;;14.70;7.03;;;26.70;99.90;;;;;;5011676;28;20613;-54
2022/05/25 10:28:44;;;;;;;15.65;7.45;;;26.70;99.90;;;;;;5011526;28;20107;-53
2022/05/25 10:37:17;;;;;;;15.30;5.03;;;26.80;99.90;;;;;;5011502;28;20386;-53
2022/05/25 10:40:05;;;;;;;17.58;5.00;;;26.80;99.90;;;;;;5011528;28;20467;-54
2022/05/25 10:42:44;;;;;;;13.25;4.88;;;26.80;99.90;;;;;;5011432;28;20076;-53
2022/05/25 10:45:22;;;;;;;13.77;4.75;;;26.80;99.90;;;;;;5011458;28;20088;-54
2022/05/25 10:47:57;;;;;;;18.35;5.13;;;26.80;99.90;;;;;;5011325;28;20034;-54
2022/05/25 10:50:46;;;;;;;13.48;4.50;;;26.80;99.90;;;;;;5011303;28;20030;-54
2022/05/25 10:54:44;;;;;;;21.70;10.57;;;26.80;99.90;;;;;;5011309;28;20054;-54
2022/05/25 10:57:09;;;;;;;19.05;7.22;;;26.80;99.90;;;;;;5011385;28;20041;-54
2022/05/25 10:59:41;;;;;;;18.05;6.00;;;26.70;99.90;;;;;;5011684;28;20457;-54
2022/05/25 11:02:28;;;;;;;13.73;4.78;;;26.70;99.90;;;;;;5012011;28;20038;-55
2022/05/25 11:05:27;;;;;;;14.48;5.10;;;26.70;99.90;;;;;;5011455;28;20092;-54
2022/05/25 11:07:59;;;;;;;17.27;5.25;;;26.60;99.90;;;;;;5011315;28;20084;-53
2022/05/25 11:10:44;;;;;;;17.77;5.22;;;26.60;99.90;;;;;;5011236;28;20517;-54
2022/05/25 11:13:51;;;;;;;13.65;4.18;;;26.60;99.90;;;;;;5011195;28;20030;-54
2022/05/25 11:16:50;;;;;;;15.07;4.25;;;26.60;99.90;;;;;;5011290;28;20521;-54
2022/05/25 11:19:39;;;;;;;19.75;4.88;;;26.70;99.90;;;;;;5011083;28;20033;-54
2022/05/25 11:22:25;;;;;;;20.08;5.00;;;26.60;99.90;;;;;;4997376;28;20465;-54
2022/05/25 11:25:31;;;;;;;17.23;4.20;;;26.50;99.90;;;;;;5010730;28;20030;-54
2022/05/25 11:28:29;;;;;;;12.95;4.03;;;26.50;99.90;;;;;;5011989;28;20497;-54
2022/05/25 11:31:35;;;;;;;15.38;4.10;;;26.50;99.90;;;;;;4973854;28;20397;-54
2022/05/25 11:34:14;;;;;;;16.60;5.30;;;26.50;99.90;;;;;;5014583;28;20022;-53
2022/05/25 11:36:58;;;;;;;20.15;5.65;;;26.60;99.90;;;;;;5014497;28;20401;-54
2022/05/25 11:39:52;;;;;;;17.77;4.75;;;26.60;99.90;;;;;;5014594;28;20024;-54
2022/05/25 11:43:01;;;;;;;16.10;4.32;;;26.60;99.90;;;;;;5014489;28;20030;-54
2022/05/25 11:45:39;;;;;;;22.75;5.70;;;26.70;99.90;;;;;;4984504;28;20478;-54
2022/05/25 11:48:29;;;;;;;16.08;5.10;;;26.80;99.90;;;;;;5014430;28;20042;-54
2022/05/25 11:51:20;;;;;;;15.88;5.13;;;26.80;99.90;;;;;;5014541;28;20022;-54
2022/05/25 11:54:27;;;;;;;16.67;4.35;;;26.90;99.90;;;;;;5014172;28;20104;-54
2022/05/25 11:56:57;;;;;;;;;;;26.90;99.90;;;;;;5014375;28;20133;-54
2022/05/25 11:59:47;;;;;;;11.48;3.88;;;26.90;99.90;;;;;;5014124;28;19912;-54
2022/05/25 12:02:38;;;;;;;15.63;4.38;;;26.90;99.90;;;;;;4975158;28;20039;-54
2022/05/25 12:05:29;;;;;;;14.80;3.75;;;26.90;99.90;;;;;;4975111;28;20038;-55
2022/05/25 12:08:14;;;;;;;18.55;4.45;;;26.90;99.90;;;;;;4975035;28;20043;-55
2022/05/25 12:10:43;;;;;;;15.95;4.57;;;26.90;99.90;;;;;;4974925;28;20521;-55
2022/05/25 12:13:17;;;;;;;13.68;3.35;;;26.80;99.90;;;;;;4975100;28;20467;-54
2022/05/25 12:15:59;;;;;;;11.23;3.97;;;26.80;99.90;;;;;;4974898;28;20069;-54
2022/05/25 12:18:43;;;;;;;16.25;3.97;;;26.80;99.90;;;;;;4974813;28;20031;-54
2022/05/25 12:21:40;;;;;;;10.18;2.97;;;26.80;99.90;;;;;;4974845;28;20039;-55
2022/05/25 12:24:16;;;;;;;13.80;3.15;;;26.70;99.90;;;;;;4971237;28;20440;-56
2022/05/25 12:26:43;;;;;;;13.95;4.47;;;26.70;99.90;;;;;;4974610;28;20070;-53
2022/05/25 12:29:18;;;;;;;19.63;4.65;;;26.70;99.90;;;;;;4974744;28;20038;-53
2022/05/25 12:31:46;;;;;;;14.80;3.75;;;26.70;99.90;;;;;;4974477;28;20023;-54
2022/05/25 12:34:14;;;;;;;16.75;4.45;;;26.80;99.90;;;;;;4974469;28;20268;-54
2022/05/25 12:36:42;;;;;;;9.85;3.75;;;26.70;99.90;;;;;;4973436;28;20037;-55
2022/05/25 12:39:08;;;;;;;;;;;26.70;99.90;;;;;;4974506;28;20075;-54
2022/05/25 12:41:36;;;;;;;17.77;4.15;;;26.80;99.90;;;;;;4974366;28;19910;-54
2022/05/25 12:49:44;;;;;;;16.42;3.83;;;26.70;99.90;;;;;;4973809;28;20090;-53
2022/05/25 12:52:28;;;;;;;15.35;4.90;;;26.60;99.90;;;;;;4974564;28;20031;-54
2022/05/25 12:55:03;;;;;;;13.07;3.97;;;26.50;99.90;;;;;;4974339;28;20035;-54
2022/05/25 12:57:44;;;;;;;13.70;3.78;;;26.50;99.90;;;;;;4966433;28;20059;-54
2022/05/25 13:00:17;;;;;;;14.13;4.20;;;26.50;99.90;;;;;;4969938;28;20057;-54
2022/05/25 13:02:43;;;;;;;14.55;4.05;;;26.40;99.90;;;;;;5000692;28;20057;-55
2022/05/25 13:05:13;;;;;;;15.85;3.95;;;26.40;99.90;;;;;;5008430;28;20026;-54
2022/05/25 13:07:45;;;;;;;19.35;4.00;;;26.40;99.90;;;;;;4998054;28;20025;-54
2022/05/25 13:10:31;;;;;;;12.27;3.65;;;26.40;99.90;;;;;;5008266;28;20034;-54
2022/05/25 13:12:58;;;;;;;15.57;4.10;;;26.30;99.90;;;;;;5009980;28;20031;-54
2022/05/25 13:15:24;;;;;;;10.73;3.92;;;26.30;99.90;;;;;;5000779;28;20210;-55
2022/05/25 13:17:58;;;;;;;13.38;4.00;;;26.30;99.90;;;;;;5009789;28;20105;-50
2022/05/25 13:20:27;;;;;;;13.90;4.75;;;26.20;99.90;;;;;;5006321;28;20037;-54
2022/05/25 13:22:54;;;;;;;15.95;4.55;;;26.30;99.90;;;;;;5010224;28;20018;-54
2022/05/25 13:25:34;;;;;;;14.38;4.32;;;26.20;99.90;;;;;;5011662;28;20363;-53
2022/05/25 13:28:30;;;;;;;16.02;4.05;;;26.10;99.90;;;;;;5007042;28;20509;-54
2022/05/25 13:31:23;;;;;;;15.35;3.67;;;26.00;99.90;;;;;;5006171;28;20053;-51
2022/05/25 13:33:49;;;;;;;13.07;3.03;;;25.90;99.90;;;;;;5008805;28;20093;-54
2022/05/25 13:36:20;;;;;;;15.13;4.47;;;26.00;99.90;;;;;;5009792;28;20441;-53
2022/05/25 13:38:58;;;;;;;13.88;3.30;;;26.00;99.90;;;;;;5011608;28;20037;-53
2022/05/25 13:41:28;;;;;;;15.75;4.03;;;26.10;99.90;;;;;;5010945;28;20351;-53
2022/05/25 13:44:06;;;;;;;14.90;4.10;;;26.30;99.90;;;;;;5010089;28;20478;-55